sensor_id;sensor_type;location;lat;lon;timestamp;pressure;altitude;pressure_sealevel;temperature;humidity
84427;BME280;74637;52.170;21.034;2023-12-20T00:02:02;99791.45;;;4.95;93.18
84427;BME280;74637;52.170;21.034;2023-12-20T00:04:29;99789.48;;;4.95;93.30
84427;BME280;74637;52.170;21.034;2023-12-20T00:06:55;99784.24;;;4.95;93.00
84427;BME280;74637;52.170;21.034;2023-12-20T00:09:21;99780.71;;;4.95;93.04
84427;BME280;74637;52.170;21.034;2023-12-20T00:11:48;99775.53;;;4.97;93.21
84427;BME280;74637;52.170;21.034;2023-12-20T00:14:14;99776.40;;;4.98;93.22
84427;BME280;74637;52.170;21.034;2023-12-20T00:16:41;99772.84;;;4.99;93.08
84427;BME280;74637;52.170;21.034;2023-12-20T00:19:08;99767.95;;;4.99;93.35
84427;BME280;74637;52.170;21.034;2023-12-20T00:21:34;99767.65;;;4.97;93.29
84427;BME280;74637;52.170;21.034;2023-12-20T00:24:01;99769.39;;;4.98;93.27
84427;BME280;74637;52.170;21.034;2023-12-20T00:26:28;99769.36;;;4.98;93.14
84427;BME280;74637;52.170;21.034;2023-12-20T00:28:54;99775.83;;;4.99;93.27
84427;BME280;74637;52.170;21.034;2023-12-20T00:31:21;99769.98;;;5.00;93.45
84427;BME280;74637;52.170;21.034;2023-12-20T00:33:47;99765.05;;;5.01;93.74
84427;BME280;74637;52.170;21.034;2023-12-20T00:36:14;99760.35;;;5.00;93.49
84427;BME280;74637;52.170;21.034;2023-12-20T00:38:40;99760.20;;;4.99;93.35
84427;BME280;74637;52.170;21.034;2023-12-20T00:41:07;99757.47;;;4.97;93.05
84427;BME280;74637;52.170;21.034;2023-12-20T00:43:33;99754.98;;;4.98;93.17
84427;BME280;74637;52.170;21.034;2023-12-20T00:46:00;99758.51;;;4.97;93.26
84427;BME280;74637;52.170;21.034;2023-12-20T00:48:26;99755.69;;;4.97;93.40
84427;BME280;74637;52.170;21.034;2023-12-20T00:50:53;99749.73;;;4.97;93.57
84427;BME280;74637;52.170;21.034;2023-12-20T00:53:20;99745.84;;;4.98;93.47
84427;BME280;74637;52.170;21.034;2023-12-20T00:55:46;99751.43;;;4.99;93.32
84427;BME280;74637;52.170;21.034;2023-12-20T00:58:13;99747.77;;;4.98;93.39
84427;BME280;74637;52.170;21.034;2023-12-20T01:00:41;99744.10;;;4.97;93.31
84427;BME280;74637;52.170;21.034;2023-12-20T01:03:09;99744.98;;;4.97;93.53
84427;BME280;74637;52.170;21.034;2023-12-20T01:05:36;99734.48;;;4.97;93.24
84427;BME280;74637;52.170;21.034;2023-12-20T01:08:02;99735.13;;;4.98;93.41
84427;BME280;74637;52.170;21.034;2023-12-20T01:10:29;99737.39;;;4.98;93.57
84427;BME280;74637;52.170;21.034;2023-12-20T01:12:56;99732.29;;;4.99;93.40
84427;BME280;74637;52.170;21.034;2023-12-20T01:15:22;99732.48;;;4.98;93.17
84427;BME280;74637;52.170;21.034;2023-12-20T01:17:49;99726.56;;;4.97;93.42
84427;BME280;74637;52.170;21.034;2023-12-20T01:20:16;99732.87;;;4.98;93.49
84427;BME280;74637;52.170;21.034;2023-12-20T01:22:43;99734.95;;;4.98;93.15
84427;BME280;74637;52.170;21.034;2023-12-20T01:25:12;99732.37;;;4.96;93.48
84427;BME280;74637;52.170;21.034;2023-12-20T01:27:38;99725.34;;;4.97;93.43
84427;BME280;74637;52.170;21.034;2023-12-20T01:30:06;99725.33;;;4.97;93.37
84427;BME280;74637;52.170;21.034;2023-12-20T01:32:32;99726.90;;;4.98;93.66
84427;BME280;74637;52.170;21.034;2023-12-20T01:34:59;99721.33;;;4.96;93.65
84427;BME280;74637;52.170;21.034;2023-12-20T01:37:25;99722.02;;;4.96;93.48
84427;BME280;74637;52.170;21.034;2023-12-20T01:39:53;99715.66;;;4.97;93.67
84427;BME280;74637;52.170;21.034;2023-12-20T01:42:19;99710.90;;;4.98;93.53
84427;BME280;74637;52.170;21.034;2023-12-20T01:44:46;99708.63;;;4.97;93.45
84427;BME280;74637;52.170;21.034;2023-12-20T01:47:12;99711.65;;;4.97;93.69
84427;BME280;74637;52.170;21.034;2023-12-20T01:49:39;99706.35;;;4.98;93.48
84427;BME280;74637;52.170;21.034;2023-12-20T01:52:06;99706.52;;;4.98;93.35
84427;BME280;74637;52.170;21.034;2023-12-20T01:54:34;99707.86;;;4.99;93.85
84427;BME280;74637;52.170;21.034;2023-12-20T01:57:02;99704.98;;;5.01;93.63
84427;BME280;74637;52.170;21.034;2023-12-20T01:59:29;99700.15;;;5.04;93.69
84427;BME280;74637;52.170;21.034;2023-12-20T02:01:57;99701.09;;;5.06;93.82
84427;BME280;74637;52.170;21.034;2023-12-20T02:04:24;99699.43;;;5.08;94.16
84427;BME280;74637;52.170;21.034;2023-12-20T02:06:52;99695.64;;;5.07;93.74
84427;BME280;74637;52.170;21.034;2023-12-20T02:09:19;99697.73;;;5.07;93.70
84427;BME280;74637;52.170;21.034;2023-12-20T02:11:45;99692.05;;;5.04;93.76
84427;BME280;74637;52.170;21.034;2023-12-20T02:14:12;99685.98;;;5.02;93.60
84427;BME280;74637;52.170;21.034;2023-12-20T02:16:39;99687.80;;;5.00;93.57
84427;BME280;74637;52.170;21.034;2023-12-20T02:19:13;99688.71;;;4.99;93.80
84427;BME280;74637;52.170;21.034;2023-12-20T02:21:40;99679.80;;;4.98;93.64
84427;BME280;74637;52.170;21.034;2023-12-20T02:24:06;99683.35;;;4.97;93.67
84427;BME280;74637;52.170;21.034;2023-12-20T02:26:33;99686.02;;;4.97;93.68
84427;BME280;74637;52.170;21.034;2023-12-20T02:29:00;99685.61;;;4.93;93.36
84427;BME280;74637;52.170;21.034;2023-12-20T02:31:27;99675.96;;;4.93;93.46
84427;BME280;74637;52.170;21.034;2023-12-20T02:33:54;99671.56;;;4.94;93.38
84427;BME280;74637;52.170;21.034;2023-12-20T02:36:20;99666.00;;;4.92;93.08
84427;BME280;74637;52.170;21.034;2023-12-20T02:38:47;99664.28;;;4.91;93.31
84427;BME280;74637;52.170;21.034;2023-12-20T02:41:14;99670.42;;;4.91;93.42
84427;BME280;74637;52.170;21.034;2023-12-20T02:43:43;99663.55;;;4.92;93.48
84427;BME280;74637;52.170;21.034;2023-12-20T02:46:11;99654.95;;;4.91;93.30
84427;BME280;74637;52.170;21.034;2023-12-20T02:48:38;99657.95;;;4.92;93.59
84427;BME280;74637;52.170;21.034;2023-12-20T02:51:04;99661.27;;;4.92;93.57
84427;BME280;74637;52.170;21.034;2023-12-20T02:53:31;99663.60;;;4.91;93.63
84427;BME280;74637;52.170;21.034;2023-12-20T02:55:57;99656.59;;;4.90;93.72
84427;BME280;74637;52.170;21.034;2023-12-20T02:58:24;99650.10;;;4.90;93.41
84427;BME280;74637;52.170;21.034;2023-12-20T03:00:51;99658.17;;;4.91;92.81
84427;BME280;74637;52.170;21.034;2023-12-20T03:03:17;99652.54;;;4.91;93.24
84427;BME280;74637;52.170;21.034;2023-12-20T03:05:45;99652.35;;;4.91;93.41
84427;BME280;74637;52.170;21.034;2023-12-20T03:08:12;99654.68;;;4.90;93.46
84427;BME280;74637;52.170;21.034;2023-12-20T03:10:38;99654.02;;;4.89;93.36
84427;BME280;74637;52.170;21.034;2023-12-20T03:13:05;99652.27;;;4.89;93.59
84427;BME280;74637;52.170;21.034;2023-12-20T03:15:31;99650.63;;;4.90;93.80
84427;BME280;74637;52.170;21.034;2023-12-20T03:17:58;99642.25;;;4.89;93.58
84427;BME280;74637;52.170;21.034;2023-12-20T03:20:25;99640.30;;;4.89;93.76
84427;BME280;74637;52.170;21.034;2023-12-20T03:22:52;99635.08;;;4.88;93.68
84427;BME280;74637;52.170;21.034;2023-12-20T03:25:19;99636.84;;;4.89;93.76
84427;BME280;74637;52.170;21.034;2023-12-20T03:27:45;99646.29;;;4.89;93.92
84427;BME280;74637;52.170;21.034;2023-12-20T03:30:12;99651.58;;;4.89;93.67
84427;BME280;74637;52.170;21.034;2023-12-20T03:32:38;99647.05;;;4.88;93.80
84427;BME280;74637;52.170;21.034;2023-12-20T03:35:05;99643.27;;;4.85;93.80
84427;BME280;74637;52.170;21.034;2023-12-20T03:37:32;99637.47;;;4.85;93.79
84427;BME280;74637;52.170;21.034;2023-12-20T03:39:59;99639.58;;;4.85;93.85
84427;BME280;74637;52.170;21.034;2023-12-20T03:42:25;99639.23;;;4.85;93.52
84427;BME280;74637;52.170;21.034;2023-12-20T03:44:52;99630.98;;;4.85;93.63
84427;BME280;74637;52.170;21.034;2023-12-20T03:47:18;99627.47;;;4.85;93.84
84427;BME280;74637;52.170;21.034;2023-12-20T03:49:45;99631.32;;;4.85;93.85
84427;BME280;74637;52.170;21.034;2023-12-20T03:52:11;99620.64;;;4.85;93.83
84427;BME280;74637;52.170;21.034;2023-12-20T03:54:38;99633.27;;;4.85;93.48
84427;BME280;74637;52.170;21.034;2023-12-20T03:57:05;99639.09;;;4.84;93.73
84427;BME280;74637;52.170;21.034;2023-12-20T03:59:35;99640.48;;;4.85;93.91
84427;BME280;74637;52.170;21.034;2023-12-20T04:02:03;99635.38;;;4.85;93.88
84427;BME280;74637;52.170;21.034;2023-12-20T04:04:30;99625.23;;;4.84;93.67
84427;BME280;74637;52.170;21.034;2023-12-20T04:06:56;99616.62;;;4.84;93.22
84427;BME280;74637;52.170;21.034;2023-12-20T04:09:23;99622.64;;;4.83;93.51
84427;BME280;74637;52.170;21.034;2023-12-20T04:11:49;99624.77;;;4.82;92.82
84427;BME280;74637;52.170;21.034;2023-12-20T04:14:16;99633.09;;;4.80;93.56
84427;BME280;74637;52.170;21.034;2023-12-20T04:16:42;99624.13;;;4.81;93.39
84427;BME280;74637;52.170;21.034;2023-12-20T04:19:09;99623.37;;;4.82;93.59
84427;BME280;74637;52.170;21.034;2023-12-20T04:21:35;99632.52;;;4.82;93.32
84427;BME280;74637;52.170;21.034;2023-12-20T04:24:02;99633.71;;;4.83;93.68
84427;BME280;74637;52.170;21.034;2023-12-20T04:26:29;99625.40;;;4.84;93.74
84427;BME280;74637;52.170;21.034;2023-12-20T04:28:55;99629.60;;;4.84;93.90
84427;BME280;74637;52.170;21.034;2023-12-20T04:31:22;99632.73;;;4.85;93.88
84427;BME280;74637;52.170;21.034;2023-12-20T04:33:49;99625.86;;;4.86;93.74
84427;BME280;74637;52.170;21.034;2023-12-20T04:36:15;99620.73;;;4.87;93.97
84427;BME280;74637;52.170;21.034;2023-12-20T04:38:42;99616.16;;;4.87;93.87
84427;BME280;74637;52.170;21.034;2023-12-20T04:41:08;99622.93;;;4.89;93.91
84427;BME280;74637;52.170;21.034;2023-12-20T04:43:35;99624.32;;;4.90;94.02
84427;BME280;74637;52.170;21.034;2023-12-20T04:46:01;99630.92;;;4.91;94.07
84427;BME280;74637;52.170;21.034;2023-12-20T04:48:28;99628.85;;;4.91;93.89
84427;BME280;74637;52.170;21.034;2023-12-20T04:50:54;99622.34;;;4.91;93.95
84427;BME280;74637;52.170;21.034;2023-12-20T04:53:21;99622.30;;;4.92;94.05
84427;BME280;74637;52.170;21.034;2023-12-20T04:55:48;99626.45;;;4.93;94.03
84427;BME280;74637;52.170;21.034;2023-12-20T04:58:14;99625.02;;;4.94;94.06
84427;BME280;74637;52.170;21.034;2023-12-20T05:00:41;99625.95;;;4.92;93.60
84427;BME280;74637;52.170;21.034;2023-12-20T05:03:07;99622.04;;;4.94;93.83
84427;BME280;74637;52.170;21.034;2023-12-20T05:05:33;99621.82;;;4.95;93.99
84427;BME280;74637;52.170;21.034;2023-12-20T05:08:00;99617.63;;;4.94;93.86
84427;BME280;74637;52.170;21.034;2023-12-20T05:10:27;99617.59;;;4.95;93.67
84427;BME280;74637;52.170;21.034;2023-12-20T05:12:54;99614.06;;;4.96;93.43
84427;BME280;74637;52.170;21.034;2023-12-20T05:15:20;99611.54;;;4.97;93.47
84427;BME280;74637;52.170;21.034;2023-12-20T05:17:47;99612.24;;;4.97;93.49
84427;BME280;74637;52.170;21.034;2023-12-20T05:20:13;99610.65;;;4.97;93.61
84427;BME280;74637;52.170;21.034;2023-12-20T05:22:41;99606.47;;;4.97;93.72
84427;BME280;74637;52.170;21.034;2023-12-20T05:25:08;99607.33;;;4.97;93.51
84427;BME280;74637;52.170;21.034;2023-12-20T05:27:34;99611.91;;;4.97;93.63
84427;BME280;74637;52.170;21.034;2023-12-20T05:30:01;99606.10;;;4.97;93.85
84427;BME280;74637;52.170;21.034;2023-12-20T05:32:27;99601.73;;;4.97;93.96
84427;BME280;74637;52.170;21.034;2023-12-20T05:34:54;99600.99;;;4.97;93.71
84427;BME280;74637;52.170;21.034;2023-12-20T05:37:20;99601.16;;;4.98;93.96
84427;BME280;74637;52.170;21.034;2023-12-20T05:39:47;99605.40;;;4.97;93.88
84427;BME280;74637;52.170;21.034;2023-12-20T05:42:13;99602.63;;;4.96;93.81
84427;BME280;74637;52.170;21.034;2023-12-20T05:44:40;99606.67;;;4.96;93.61
84427;BME280;74637;52.170;21.034;2023-12-20T05:47:06;99613.00;;;4.96;93.56
84427;BME280;74637;52.170;21.034;2023-12-20T05:49:33;99604.98;;;4.95;93.64
84427;BME280;74637;52.170;21.034;2023-12-20T05:51:59;99603.58;;;4.95;93.78
84427;BME280;74637;52.170;21.034;2023-12-20T05:54:26;99607.03;;;4.96;94.11
84427;BME280;74637;52.170;21.034;2023-12-20T05:56:52;99605.27;;;4.96;93.95
84427;BME280;74637;52.170;21.034;2023-12-20T05:59:19;99607.04;;;4.96;94.07
84427;BME280;74637;52.170;21.034;2023-12-20T06:01:46;99602.03;;;4.94;93.90
84427;BME280;74637;52.170;21.034;2023-12-20T06:04:12;99596.48;;;4.92;93.83
84427;BME280;74637;52.170;21.034;2023-12-20T06:06:41;99592.85;;;4.91;94.07
84427;BME280;74637;52.170;21.034;2023-12-20T06:09:08;99599.02;;;4.90;93.86
84427;BME280;74637;52.170;21.034;2023-12-20T06:11:35;99598.17;;;4.89;93.97
84427;BME280;74637;52.170;21.034;2023-12-20T06:14:01;99600.34;;;4.88;93.93
84427;BME280;74637;52.170;21.034;2023-12-20T06:16:28;99601.42;;;4.87;93.90
84427;BME280;74637;52.170;21.034;2023-12-20T06:18:54;99598.48;;;4.86;93.82
84427;BME280;74637;52.170;21.034;2023-12-20T06:21:21;99602.79;;;4.88;94.23
84427;BME280;74637;52.170;21.034;2023-12-20T06:23:47;99607.84;;;4.89;94.08
84427;BME280;74637;52.170;21.034;2023-12-20T06:26:14;99604.55;;;4.88;93.88
84427;BME280;74637;52.170;21.034;2023-12-20T06:28:40;99603.86;;;4.88;93.86
84427;BME280;74637;52.170;21.034;2023-12-20T06:31:07;99609.65;;;4.88;94.06
84427;BME280;74637;52.170;21.034;2023-12-20T06:33:36;99607.59;;;4.86;94.03
84427;BME280;74637;52.170;21.034;2023-12-20T06:36:03;99607.64;;;4.85;93.76
84427;BME280;74637;52.170;21.034;2023-12-20T06:38:29;99605.55;;;4.84;93.98
84427;BME280;74637;52.170;21.034;2023-12-20T06:40:56;99608.98;;;4.87;93.84
84427;BME280;74637;52.170;21.034;2023-12-20T06:43:24;99600.83;;;4.84;93.98
84427;BME280;74637;52.170;21.034;2023-12-20T06:45:51;99606.95;;;4.84;93.65
84427;BME280;74637;52.170;21.034;2023-12-20T06:48:18;99608.43;;;4.82;93.69
84427;BME280;74637;52.170;21.034;2023-12-20T06:50:44;99609.83;;;4.83;94.12
84427;BME280;74637;52.170;21.034;2023-12-20T06:53:11;99608.11;;;4.82;93.99
84427;BME280;74637;52.170;21.034;2023-12-20T06:55:38;99605.31;;;4.81;94.08
84427;BME280;74637;52.170;21.034;2023-12-20T06:58:05;99603.17;;;4.82;93.90
84427;BME280;74637;52.170;21.034;2023-12-20T07:00:31;99609.63;;;4.83;93.91
84427;BME280;74637;52.170;21.034;2023-12-20T07:02:58;99605.91;;;4.84;93.77
84427;BME280;74637;52.170;21.034;2023-12-20T07:05:25;99603.39;;;4.86;94.32
84427;BME280;74637;52.170;21.034;2023-12-20T07:07:53;99605.27;;;4.88;94.22
84427;BME280;74637;52.170;21.034;2023-12-20T07:10:20;99604.89;;;4.88;94.35
84427;BME280;74637;52.170;21.034;2023-12-20T07:12:46;99605.08;;;4.88;94.12
84427;BME280;74637;52.170;21.034;2023-12-20T07:15:15;99603.35;;;4.87;93.76
84427;BME280;74637;52.170;21.034;2023-12-20T07:17:41;99608.71;;;4.89;94.23
84427;BME280;74637;52.170;21.034;2023-12-20T07:20:09;99607.10;;;4.90;94.25
84427;BME280;74637;52.170;21.034;2023-12-20T07:22:37;99607.60;;;4.90;94.41
84427;BME280;74637;52.170;21.034;2023-12-20T07:25:04;99610.38;;;4.91;94.21
84427;BME280;74637;52.170;21.034;2023-12-20T07:27:30;99614.45;;;4.91;94.37
84427;BME280;74637;52.170;21.034;2023-12-20T07:29:57;99614.61;;;4.91;94.18
84427;BME280;74637;52.170;21.034;2023-12-20T07:32:24;99613.56;;;4.91;94.32
84427;BME280;74637;52.170;21.034;2023-12-20T07:34:51;99613.16;;;4.92;94.42
84427;BME280;74637;52.170;21.034;2023-12-20T07:37:17;99607.28;;;4.90;93.85
84427;BME280;74637;52.170;21.034;2023-12-20T07:39:44;99614.63;;;4.90;94.10
84427;BME280;74637;52.170;21.034;2023-12-20T07:42:10;99614.60;;;4.91;94.20
84427;BME280;74637;52.170;21.034;2023-12-20T07:44:37;99615.16;;;4.91;93.94
84427;BME280;74637;52.170;21.034;2023-12-20T07:47:04;99616.40;;;4.90;93.95
84427;BME280;74637;52.170;21.034;2023-12-20T07:49:31;99613.38;;;4.91;94.27
84427;BME280;74637;52.170;21.034;2023-12-20T07:51:58;99610.53;;;4.92;94.07
84427;BME280;74637;52.170;21.034;2023-12-20T07:54:25;99609.83;;;4.92;93.92
84427;BME280;74637;52.170;21.034;2023-12-20T07:56:51;99609.84;;;4.91;93.89
84427;BME280;74637;52.170;21.034;2023-12-20T07:59:18;99605.42;;;4.92;93.94
84427;BME280;74637;52.170;21.034;2023-12-20T08:01:45;99605.65;;;4.91;93.91
84427;BME280;74637;52.170;21.034;2023-12-20T08:04:11;99612.56;;;4.90;93.82
84427;BME280;74637;52.170;21.034;2023-12-20T08:06:38;99608.02;;;4.89;93.80
84427;BME280;74637;52.170;21.034;2023-12-20T08:09:05;99611.86;;;4.89;93.71
84427;BME280;74637;52.170;21.034;2023-12-20T08:11:31;99614.34;;;4.89;93.89
84427;BME280;74637;52.170;21.034;2023-12-20T08:13:58;99610.51;;;4.88;94.04
84427;BME280;74637;52.170;21.034;2023-12-20T08:16:24;99608.70;;;4.85;93.58
84427;BME280;74637;52.170;21.034;2023-12-20T08:18:51;99606.15;;;4.83;93.46
84427;BME280;74637;52.170;21.034;2023-12-20T08:21:18;99607.72;;;4.83;93.63
84427;BME280;74637;52.170;21.034;2023-12-20T08:23:46;99604.55;;;4.83;93.87
84427;BME280;74637;52.170;21.034;2023-12-20T08:26:13;99608.54;;;4.84;93.91
84427;BME280;74637;52.170;21.034;2023-12-20T08:28:40;99601.23;;;4.83;93.70
84427;BME280;74637;52.170;21.034;2023-12-20T08:31:13;99601.95;;;4.82;93.66
84427;BME280;74637;52.170;21.034;2023-12-20T08:33:40;99600.88;;;4.83;93.31
84427;BME280;74637;52.170;21.034;2023-12-20T08:36:07;99604.23;;;4.82;93.84
84427;BME280;74637;52.170;21.034;2023-12-20T08:38:33;99603.44;;;4.84;93.96
84427;BME280;74637;52.170;21.034;2023-12-20T08:41:00;99609.06;;;4.84;94.13
84427;BME280;74637;52.170;21.034;2023-12-20T08:43:27;99609.95;;;4.84;94.11
84427;BME280;74637;52.170;21.034;2023-12-20T08:45:54;99610.31;;;4.84;93.97
84427;BME280;74637;52.170;21.034;2023-12-20T08:48:20;99611.35;;;4.84;93.98
84427;BME280;74637;52.170;21.034;2023-12-20T08:50:47;99611.84;;;4.85;94.26
84427;BME280;74637;52.170;21.034;2023-12-20T08:53:15;99610.83;;;4.84;94.17
84427;BME280;74637;52.170;21.034;2023-12-20T08:55:43;99604.18;;;4.83;94.15
84427;BME280;74637;52.170;21.034;2023-12-20T08:58:10;99604.48;;;4.85;94.32
84427;BME280;74637;52.170;21.034;2023-12-20T09:00:36;99602.06;;;4.84;93.99
84427;BME280;74637;52.170;21.034;2023-12-20T09:03:03;99600.68;;;4.83;93.94
84427;BME280;74637;52.170;21.034;2023-12-20T09:05:30;99599.57;;;4.85;94.07
84427;BME280;74637;52.170;21.034;2023-12-20T09:07:57;99590.11;;;4.84;94.08
84427;BME280;74637;52.170;21.034;2023-12-20T09:10:23;99587.67;;;4.84;94.12
84427;BME280;74637;52.170;21.034;2023-12-20T09:12:51;99586.44;;;4.84;94.26
84427;BME280;74637;52.170;21.034;2023-12-20T09:15:18;99585.04;;;4.84;94.18
84427;BME280;74637;52.170;21.034;2023-12-20T09:17:44;99583.48;;;4.83;94.07
84427;BME280;74637;52.170;21.034;2023-12-20T09:20:11;99586.28;;;4.83;94.19
84427;BME280;74637;52.170;21.034;2023-12-20T09:22:39;99580.81;;;4.84;94.23
84427;BME280;74637;52.170;21.034;2023-12-20T09:25:09;99576.58;;;4.85;94.46
84427;BME280;74637;52.170;21.034;2023-12-20T09:27:37;99573.71;;;4.86;94.27
84427;BME280;74637;52.170;21.034;2023-12-20T09:30:04;99569.98;;;4.88;94.36
84427;BME280;74637;52.170;21.034;2023-12-20T09:32:32;99565.38;;;4.89;94.13
84427;BME280;74637;52.170;21.034;2023-12-20T09:34:58;99566.15;;;4.91;94.43
84427;BME280;74637;52.170;21.034;2023-12-20T09:37:26;99560.13;;;4.92;94.17
84427;BME280;74637;52.170;21.034;2023-12-20T09:39:54;99554.63;;;4.94;94.00
84427;BME280;74637;52.170;21.034;2023-12-20T09:42:48;99555.35;;;4.93;94.16
84427;BME280;74637;52.170;21.034;2023-12-20T09:45:20;99550.99;;;4.92;94.33
84427;BME280;74637;52.170;21.034;2023-12-20T09:47:58;99554.02;;;4.92;94.05
84427;BME280;74637;52.170;21.034;2023-12-20T09:50:24;99553.11;;;4.92;94.05
84427;BME280;74637;52.170;21.034;2023-12-20T09:52:53;99554.58;;;4.90;94.02
84427;BME280;74637;52.170;21.034;2023-12-20T09:55:20;99548.45;;;4.90;94.21
84427;BME280;74637;52.170;21.034;2023-12-20T09:57:48;99546.49;;;4.91;94.35
84427;BME280;74637;52.170;21.034;2023-12-20T10:00:15;99544.01;;;4.91;94.46
84427;BME280;74637;52.170;21.034;2023-12-20T10:02:56;99546.95;;;4.93;94.24
84427;BME280;74637;52.170;21.034;2023-12-20T10:05:30;99539.98;;;4.91;94.28
84427;BME280;74637;52.170;21.034;2023-12-20T10:07:58;99543.02;;;4.90;94.38
84427;BME280;74637;52.170;21.034;2023-12-20T10:10:26;99541.80;;;4.90;94.39
84427;BME280;74637;52.170;21.034;2023-12-20T10:13:10;99544.39;;;4.91;94.12
84427;BME280;74637;52.170;21.034;2023-12-20T10:15:37;99545.26;;;4.91;94.52
84427;BME280;74637;52.170;21.034;2023-12-20T10:18:05;99543.66;;;4.91;94.31
84427;BME280;74637;52.170;21.034;2023-12-20T10:20:32;99543.95;;;4.93;94.26
84427;BME280;74637;52.170;21.034;2023-12-20T10:23:00;99542.35;;;4.93;94.19
84427;BME280;74637;52.170;21.034;2023-12-20T10:25:27;99538.08;;;4.90;93.76
84427;BME280;74637;52.170;21.034;2023-12-20T10:28:14;99533.20;;;4.90;93.54
84427;BME280;74637;52.170;21.034;2023-12-20T10:30:41;99535.17;;;4.89;94.02
84427;BME280;74637;52.170;21.034;2023-12-20T10:33:08;99537.13;;;4.92;94.20
84427;BME280;74637;52.170;21.034;2023-12-20T10:35:37;99528.69;;;4.92;94.35
84427;BME280;74637;52.170;21.034;2023-12-20T10:38:05;99524.48;;;4.92;94.20
84427;BME280;74637;52.170;21.034;2023-12-20T10:40:36;99526.06;;;4.93;94.24
84427;BME280;74637;52.170;21.034;2023-12-20T10:43:05;99522.71;;;4.92;94.49
84427;BME280;74637;52.170;21.034;2023-12-20T10:45:32;99524.10;;;4.93;94.48
84427;BME280;74637;52.170;21.034;2023-12-20T10:48:01;99523.80;;;4.92;94.38
84427;BME280;74637;52.170;21.034;2023-12-20T10:50:29;99520.33;;;4.91;94.19
84427;BME280;74637;52.170;21.034;2023-12-20T10:52:57;99517.70;;;4.91;94.20
84427;BME280;74637;52.170;21.034;2023-12-20T10:55:25;99520.13;;;4.92;94.38
84427;BME280;74637;52.170;21.034;2023-12-20T10:57:52;99518.64;;;4.93;94.35
84427;BME280;74637;52.170;21.034;2023-12-20T11:00:21;99515.02;;;4.92;94.36
84427;BME280;74637;52.170;21.034;2023-12-20T11:02:50;99505.52;;;4.88;93.72
84427;BME280;74637;52.170;21.034;2023-12-20T11:08:06;99506.55;;;4.88;94.13
84427;BME280;74637;52.170;21.034;2023-12-20T11:13:17;99498.88;;;4.88;94.04
84427;BME280;74637;52.170;21.034;2023-12-20T11:15:47;99491.16;;;4.88;94.20
84427;BME280;74637;52.170;21.034;2023-12-20T11:18:14;99489.68;;;4.89;94.15
84427;BME280;74637;52.170;21.034;2023-12-20T11:20:42;99484.71;;;4.90;93.98
84427;BME280;74637;52.170;21.034;2023-12-20T11:23:09;99475.34;;;4.92;94.26
84427;BME280;74637;52.170;21.034;2023-12-20T11:26:08;99472.63;;;4.94;94.17
84427;BME280;74637;52.170;21.034;2023-12-20T11:28:34;99473.70;;;4.93;94.56
84427;BME280;74637;52.170;21.034;2023-12-20T11:31:02;99471.27;;;4.93;94.44
84427;BME280;74637;52.170;21.034;2023-12-20T11:33:39;99469.05;;;4.91;94.26
84427;BME280;74637;52.170;21.034;2023-12-20T11:36:18;99464.73;;;4.90;94.03
84427;BME280;74637;52.170;21.034;2023-12-20T11:38:57;99461.58;;;4.89;94.35
84427;BME280;74637;52.170;21.034;2023-12-20T11:41:25;99459.88;;;4.88;94.28
84427;BME280;74637;52.170;21.034;2023-12-20T11:43:55;99456.38;;;4.88;94.38
84427;BME280;74637;52.170;21.034;2023-12-20T11:46:22;99453.84;;;4.90;94.26
84427;BME280;74637;52.170;21.034;2023-12-20T11:48:50;99450.24;;;4.92;94.14
84427;BME280;74637;52.170;21.034;2023-12-20T11:51:17;99449.36;;;4.92;94.33
84427;BME280;74637;52.170;21.034;2023-12-20T11:53:43;99453.80;;;4.91;94.22
84427;BME280;74637;52.170;21.034;2023-12-20T11:56:10;99447.14;;;4.90;94.20
84427;BME280;74637;52.170;21.034;2023-12-20T11:58:37;99439.45;;;4.90;94.35
84427;BME280;74637;52.170;21.034;2023-12-20T12:01:05;99441.20;;;4.90;94.14
84427;BME280;74637;52.170;21.034;2023-12-20T12:03:33;99441.24;;;4.89;94.30
84427;BME280;74637;52.170;21.034;2023-12-20T12:06:01;99433.08;;;4.86;94.09
84427;BME280;74637;52.170;21.034;2023-12-20T12:08:30;99433.85;;;4.85;94.37
84427;BME280;74637;52.170;21.034;2023-12-20T12:10:57;99430.13;;;4.85;94.22
84427;BME280;74637;52.170;21.034;2023-12-20T12:13:23;99430.52;;;4.85;94.16
84427;BME280;74637;52.170;21.034;2023-12-20T12:15:53;99431.09;;;4.84;94.26
84427;BME280;74637;52.170;21.034;2023-12-20T12:18:20;99437.08;;;4.83;94.27
84427;BME280;74637;52.170;21.034;2023-12-20T12:20:47;99432.64;;;4.80;93.05
84427;BME280;74637;52.170;21.034;2023-12-20T12:23:13;99433.12;;;4.77;93.15
84427;BME280;74637;52.170;21.034;2023-12-20T12:25:40;99428.23;;;4.72;93.08
84427;BME280;74637;52.170;21.034;2023-12-20T12:28:07;99424.38;;;4.68;93.14
84427;BME280;74637;52.170;21.034;2023-12-20T12:30:34;99418.52;;;4.65;93.04
84427;BME280;74637;52.170;21.034;2023-12-20T12:33:00;99422.00;;;4.66;93.56
84427;BME280;74637;52.170;21.034;2023-12-20T12:35:27;99415.59;;;4.65;93.61
84427;BME280;74637;52.170;21.034;2023-12-20T12:37:54;99419.46;;;4.64;93.48
84427;BME280;74637;52.170;21.034;2023-12-20T12:40:20;99419.98;;;4.61;93.26
84427;BME280;74637;52.170;21.034;2023-12-20T12:42:47;99413.92;;;4.58;93.18
84427;BME280;74637;52.170;21.034;2023-12-20T12:45:14;99417.69;;;4.56;93.37
84427;BME280;74637;52.170;21.034;2023-12-20T12:47:40;99404.80;;;4.53;93.47
84427;BME280;74637;52.170;21.034;2023-12-20T12:50:08;99404.34;;;4.52;93.04
84427;BME280;74637;52.170;21.034;2023-12-20T12:52:34;99411.21;;;4.51;93.46
84427;BME280;74637;52.170;21.034;2023-12-20T12:55:02;99416.70;;;4.50;93.43
84427;BME280;74637;52.170;21.034;2023-12-20T12:57:29;99409.23;;;4.48;93.73
84427;BME280;74637;52.170;21.034;2023-12-20T12:59:56;99415.41;;;4.47;93.47
84427;BME280;74637;52.170;21.034;2023-12-20T13:02:24;99417.95;;;4.45;93.76
84427;BME280;74637;52.170;21.034;2023-12-20T13:04:51;99415.71;;;4.44;93.57
84427;BME280;74637;52.170;21.034;2023-12-20T13:07:17;99407.65;;;4.44;92.98